Time;durP1;ratioP1;P1;durP2;ratioP2;P2;SDS_P1;SDS_P2;PMS_P1;PMS_P2;Temp;Humidity;BMP_temperature;BMP_pressure;BME280_temperature;BME280_humidity;BME280_pressure;Samples;Min_cycle;Max_cycle;Signal;HPM_P1;HPM_P2
2022/02/03 00:01:23;;;;;;;0.35;0.35;;;;;;;;;;5035698;28;20092;-71
2022/02/03 00:04:00;;;;;;;0.10;0.10;;;;;;;;;;5040855;28;20029;-71
2022/02/03 00:06:34;;;;;;;0.00;0.00;;;;;;;;;;5041131;28;20135;-70
2022/02/03 00:23:01;;;;;;;0.03;0.03;;;;;;;;;;5027035;28;20030;-71
2022/02/03 00:25:32;;;;;;;0.20;0.20;;;;;;;;;;5039692;28;20037;-71
2022/02/03 00:28:16;;;;;;;0.13;0.13;;;;;;;;;;5029571;28;20025;-70
2022/02/03 00:31:04;;;;;;;0.73;0.35;;;;;;;;;;5030987;28;20112;-70
2022/02/03 00:34:02;;;;;;;0.00;0.00;;;;;;;;;;5022126;28;20025;-70
2022/02/03 00:36:41;;;;;;;0.10;0.10;;;;;;;;;;5029150;28;20020;-70
2022/02/03 00:52:25;;;;;;;0.00;0.00;;;;;;;;;;5022351;28;20041;-70
2022/02/03 00:54:51;;;;;;;2.55;0.90;;;;;;;;;;5017627;28;20044;-70
2022/02/03 00:57:44;;;;;;;2.10;0.47;;;;;;;;;;5022315;28;20113;-70
2022/02/03 01:00:11;;;;;;;0.65;0.65;;;;;;;;;;5020452;28;20528;-70
2022/02/03 01:02:45;;;;;;;0.10;0.10;;;;;;;;;;5012135;28;20030;-71
2022/02/03 01:05:13;;;;;;;0.65;0.65;;;;;;;;;;5017883;28;20065;-70
2022/02/03 01:07:43;;;;;;;0.20;0.20;;;;;;;;;;5009063;28;20107;-70
2022/02/03 01:10:14;;;;;;;0.10;0.10;;;;;;;;;;5001473;28;20069;-70
2022/02/03 01:17:44;;;;;;;0.17;0.17;;;;;;;;;;5023524;28;20103;-70
2022/02/03 01:47:51;;;;;;;0.10;0.10;;;;;;;;;;5018130;28;20108;-70
2022/02/03 01:52:46;;;;;;;0.13;0.13;;;;;;;;;;5028566;28;20068;-70
2022/02/03 01:55:42;;;;;;;2.20;1.00;;;;;;;;;;5029490;28;20076;-70
2022/02/03 01:58:28;;;;;;;0.10;0.10;;;;;;;;;;5021282;28;20412;-70
2022/02/03 02:01:00;;;;;;;0.80;0.80;;;;;;;;;;5033797;28;20036;-70
2022/02/03 02:03:26;;;;;;;;;;;;;;;;;;5030043;28;20048;-70
2022/02/03 02:06:00;;;;;;;0.10;0.10;;;;;;;;;;5026207;28;20010;-70
2022/02/03 02:08:29;;;;;;;0.10;0.10;;;;;;;;;;5031738;28;20045;-71
2022/02/03 02:11:29;;;;;;;0.10;0.10;;;;;;;;;;5031469;28;20021;-70
2022/02/03 02:17:31;;;;;;;0.13;0.13;;;;;;;;;;5043557;28;20534;-70
2022/02/03 02:39:47;;;;;;;9.95;2.72;;;;;;;;;;5018788;28;20454;-71
2022/02/03 02:42:32;;;;;;;0.10;0.10;;;;;;;;;;5037147;28;20055;-71
2022/02/03 02:45:02;;;;;;;0.22;0.22;;;;;;;;;;5036534;28;20060;-70
2022/02/03 02:47:37;;;;;;;0.10;0.10;;;;;;;;;;5032667;28;20563;-71
2022/02/03 02:50:07;;;;;;;0.20;0.20;;;;;;;;;;5035881;28;20039;-70
2022/02/03 02:52:41;;;;;;;0.05;0.05;;;;;;;;;;5039840;28;20037;-71
2022/02/03 03:00:35;;;;;;;0.15;0.15;;;;;;;;;;5037112;28;20059;-70
2022/02/03 03:03:27;;;;;;;0.00;0.00;;;;;;;;;;5034142;28;20041;-69
2022/02/03 03:31:04;;;;;;;0.20;0.20;;;;;;;;;;5034290;28;20036;-70
2022/02/03 03:36:00;;;;;;;0.03;0.03;;;;;;;;;;5030030;28;20041;-70
2022/02/03 03:38:30;;;;;;;0.40;0.40;;;;;;;;;;5037268;28;20026;-70
2022/02/03 03:40:58;;;;;;;0.10;0.10;;;;;;;;;;5037782;28;20082;-71
2022/02/03 03:43:28;;;;;;;0.25;0.25;;;;;;;;;;5028238;28;20033;-70
2022/02/03 03:45:55;;;;;;;0.52;0.40;;;;;;;;;;5031568;28;20036;-71
2022/02/03 03:48:28;;;;;;;0.10;0.10;;;;;;;;;;5035334;28;20025;-71
2022/02/03 03:51:01;;;;;;;0.55;0.55;;;;;;;;;;5042543;28;20619;-70
2022/02/03 03:53:39;;;;;;;0.43;0.20;;;;;;;;;;5031623;28;20221;-70
2022/02/03 03:56:20;;;;;;;0.10;0.10;;;;;;;;;;5037194;28;20029;-71
2022/02/03 04:30:55;;;;;;;0.10;0.10;;;;;;;;;;5030940;28;20108;-71
2022/02/03 04:33:48;;;;;;;0.20;0.20;;;;;;;;;;5035814;28;20030;-70
2022/02/03 04:39:34;;;;;;;0.13;0.13;;;;;;;;;;5028757;28;20080;-70
2022/02/03 05:05:24;;;;;;;0.00;0.00;;;;;;;;;;5036230;28;20067;-70
2022/02/03 05:08:26;;;;;;;1.25;0.95;;;;;;;;;;5032378;28;20055;-71
2022/02/03 05:13:57;;;;;;;0.75;0.75;;;;;;;;;;5038987;28;20033;-70
2022/02/03 05:17:58;;;;;;;0.00;0.00;;;;;;;;;;5040430;28;20025;-70
2022/02/03 05:23:18;;;;;;;0.10;0.10;;;;;;;;;;5038402;28;20040;-71
2022/02/03 05:26:20;;;;;;;0.10;0.10;;;;;;;;;;5024648;28;20543;-71
2022/02/03 05:32:23;;;;;;;0.10;0.10;;;;;;;;;;5043075;28;20479;-70
2022/02/03 05:42:02;;;;;;;0.10;0.10;;;;;;;;;;5026843;28;20032;-70
2022/02/03 05:44:23;;;;;;;9.63;0.52;;;;;;;;;;4983788;28;20026;-70
2022/02/03 06:01:02;;;;;;;0.10;0.10;;;;;;;;;;5048361;28;20029;-71
2022/02/03 06:06:27;;;;;;;2.17;0.90;;;;;;;;;;5042939;28;20090;-71
2022/02/03 06:14:11;;;;;;;0.13;0.13;;;;;;;;;;5033398;28;20088;-70
2022/02/03 06:17:03;;;;;;;0.03;0.03;;;;;;;;;;5031353;28;20022;-71
2022/02/03 06:22:43;;;;;;;0.10;0.10;;;;;;;;;;5032268;28;20439;-70
2022/02/03 06:27:39;;;;;;;0.65;0.43;;;;;;;;;;5040606;28;20090;-70
2022/02/03 06:30:06;;;;;;;0.00;0.00;;;;;;;;;;5040084;28;20021;-70
2022/02/03 06:32:32;;;;;;;0.08;0.08;;;;;;;;;;5041926;28;20025;-70
2022/02/03 06:34:58;;;;;;;0.10;0.10;;;;;;;;;;5047715;28;20013;-70
2022/02/03 06:37:27;;;;;;;0.55;0.55;;;;;;;;;;5033182;28;20025;-71
2022/02/03 06:39:53;;;;;;;0.00;0.00;;;;;;;;;;5034081;28;20056;-70
2022/02/03 06:42:19;;;;;;;0.10;0.10;;;;;;;;;;5041235;28;20448;-70
2022/02/03 06:44:50;;;;;;;0.10;0.10;;;;;;;;;;5033898;28;20479;-70
2022/02/03 06:49:56;;;;;;;0.20;0.20;;;;;;;;;;5036182;28;19909;-70
2022/02/03 06:52:40;;;;;;;0.10;0.10;;;;;;;;;;5031666;28;20103;-71
2022/02/03 06:55:11;;;;;;;0.38;0.22;;;;;;;;;;5040347;28;20108;-71
2022/02/03 06:57:44;;;;;;;2.63;1.38;;;;;;;;;;5037470;28;20037;-70
2022/02/03 07:00:19;;;;;;;0.85;0.85;;;;;;;;;;5041396;28;20091;-70
2022/02/03 07:02:48;;;;;;;1.08;0.57;;;;;;;;;;5032370;28;20029;-73
2022/02/03 07:05:14;;;;;;;0.05;0.05;;;;;;;;;;5034707;28;20114;-72
2022/02/03 07:07:41;;;;;;;0.10;0.10;;;;;;;;;;5030077;28;20030;-72
2022/02/03 07:10:08;;;;;;;0.10;0.10;;;;;;;;;;5040707;28;20053;-74
2022/02/03 07:12:34;;;;;;;0.10;0.10;;;;;;;;;;5032554;28;20047;-73
2022/02/03 07:15:02;;;;;;;1.40;1.02;;;;;;;;;;5029801;28;20681;-73
2022/02/03 07:17:28;;;;;;;0.00;0.00;;;;;;;;;;5024018;28;20029;-73
2022/02/03 07:20:00;;;;;;;0.10;0.10;;;;;;;;;;5035280;28;20014;-74
2022/02/03 07:22:26;;;;;;;0.10;0.10;;;;;;;;;;5039502;28;20032;-73
2022/02/03 07:24:52;;;;;;;0.10;0.10;;;;;;;;;;5029153;28;20029;-73
2022/02/03 07:27:19;;;;;;;0.10;0.10;;;;;;;;;;5031793;28;20025;-73
2022/02/03 07:30:25;;;;;;;0.10;0.10;;;;;;;;;;5033615;28;20487;-69
2022/02/03 07:32:55;;;;;;;0.22;0.22;;;;;;;;;;5028509;28;20090;-71
2022/02/03 07:35:21;;;;;;;0.20;0.20;;;;;;;;;;5046804;28;20037;-71
2022/02/03 07:37:48;;;;;;;0.10;0.10;;;;;;;;;;5037244;28;20162;-69
2022/02/03 07:40:15;;;;;;;0.10;0.10;;;;;;;;;;5036315;28;20080;-71
2022/02/03 07:42:41;;;;;;;0.10;0.10;;;;;;;;;;5029174;28;20469;-70
2022/02/03 07:45:08;;;;;;;0.00;0.00;;;;;;;;;;5029424;28;20021;-71
2022/02/03 07:47:34;;;;;;;2.80;1.50;;;;;;;;;;5026358;28;20025;-71
2022/02/03 07:50:00;;;;;;;0.10;0.10;;;;;;;;;;5021826;28;20033;-71
2022/02/03 07:52:26;;;;;;;0.52;0.52;;;;;;;;;;5028038;28;20044;-71
2022/02/03 07:54:52;;;;;;;0.20;0.20;;;;;;;;;;5026590;28;20025;-72
2022/02/03 07:57:22;;;;;;;0.10;0.10;;;;;;;;;;5020176;28;20038;-72
2022/02/03 07:59:48;;;;;;;0.43;0.43;;;;;;;;;;5024270;28;20104;-72
2022/02/03 08:02:14;;;;;;;0.10;0.10;;;;;;;;;;5027981;28;20461;-71
2022/02/03 08:04:45;;;;;;;6.93;1.35;;;;;;;;;;5022236;28;20065;-69
2022/02/03 08:07:14;;;;;;;0.50;0.50;;;;;;;;;;5027680;28;20037;-71
2022/02/03 08:09:51;;;;;;;0.10;0.10;;;;;;;;;;5019223;28;20124;-70
2022/02/03 08:12:20;;;;;;;3.63;1.83;;;;;;;;;;5020319;28;20079;-70
2022/02/03 08:14:49;;;;;;;1.35;1.00;;;;;;;;;;5026428;28;20021;-71
2022/02/03 08:17:23;;;;;;;0.15;0.15;;;;;;;;;;5026076;28;20113;-72
2022/02/03 08:22:33;;;;;;;2.55;1.40;;;;;;;;;;5026458;28;20434;-71
2022/02/03 08:25:17;;;;;;;1.27;1.17;;;;;;;;;;5023652;28;20068;-71
2022/02/03 08:28:03;;;;;;;0.10;0.10;;;;;;;;;;5021582;28;20037;-71
2022/02/03 08:30:46;;;;;;;2.38;1.30;;;;;;;;;;5028519;28;20069;-72
2022/02/03 08:33:18;;;;;;;0.30;0.30;;;;;;;;;;5027639;28;20040;-71
2022/02/03 08:35:48;;;;;;;1.10;1.00;;;;;;;;;;5020900;28;20028;-71
2022/02/03 08:38:32;;;;;;;0.10;0.10;;;;;;;;;;5029443;28;20427;-70
2022/02/03 08:41:02;;;;;;;0.30;0.30;;;;;;;;;;5024856;28;20033;-71
2022/02/03 08:43:30;;;;;;;0.00;0.00;;;;;;;;;;5030876;28;20087;-71
2022/02/03 08:45:57;;;;;;;6.82;1.55;;;;;;;;;;5032355;28;20048;-71
2022/02/03 08:48:22;;;;;;;8.57;1.70;;;;;;;;;;5025635;28;20028;-72
2022/02/03 08:50:49;;;;;;;0.50;0.50;;;;;;;;;;5022582;28;20388;-71
2022/02/03 08:53:25;;;;;;;1.13;1.13;;;;;;;;;;5028771;28;20017;-71
2022/02/03 08:56:03;;;;;;;0.63;0.63;;;;;;;;;;5038532;28;20487;-70
2022/02/03 09:29:27;;;;;;;0.52;0.52;;;;;;;;;;5040094;28;20078;-70
2022/02/03 09:34:43;;;;;;;0.15;0.15;;;;;;;;;;5029222;28;20060;-70
2022/02/03 09:50:51;;;;;;;2.38;0.57;;;;;;;;;;5027792;28;20643;-70
2022/02/03 09:58:27;;;;;;;0.63;0.63;;;;;;;;;;5013870;28;20069;-72
2022/02/03 10:06:11;;;;;;;0.10;0.10;;;;;;;;;;5011210;28;20033;-71
2022/02/03 10:08:38;;;;;;;0.25;0.25;;;;;;;;;;5012757;28;20038;-72
2022/02/03 10:11:22;;;;;;;0.17;0.17;;;;;;;;;;5016611;28;20022;-72
2022/02/03 10:13:56;;;;;;;0.20;0.20;;;;;;;;;;5016067;28;20061;-72
2022/02/03 10:16:26;;;;;;;0.30;0.30;;;;;;;;;;5009804;28;20248;-73
2022/02/03 10:19:21;;;;;;;0.85;0.85;;;;;;;;;;5012564;28;20033;-73
2022/02/03 10:21:51;;;;;;;0.00;0.00;;;;;;;;;;5000062;28;20486;-74
2022/02/03 10:24:18;;;;;;;0.08;0.08;;;;;;;;;;5014574;28;20117;-73
2022/02/03 10:26:50;;;;;;;1.52;0.90;;;;;;;;;;5012223;28;20030;-72
2022/02/03 10:29:21;;;;;;;0.32;0.32;;;;;;;;;;5021997;28;20053;-71
2022/02/03 10:31:49;;;;;;;1.65;0.40;;;;;;;;;;4990011;28;20022;-71
2022/02/03 10:34:21;;;;;;;1.73;1.63;;;;;;;;;;5010223;28;20030;-72
2022/02/03 10:37:03;;;;;;;0.40;0.40;;;;;;;;;;5012046;28;20485;-72
2022/02/03 10:43:04;;;;;;;0.73;0.73;;;;;;;;;;5010811;28;20034;-72
2022/02/03 10:54:13;;;;;;;1.85;0.80;;;;;;;;;;5032222;28;20064;-72
2022/02/03 10:57:05;;;;;;;2.00;0.55;;;;;;;;;;5045504;28;20037;-72
2022/02/03 11:00:00;;;;;;;0.00;0.00;;;;;;;;;;5030023;28;20120;-72
2022/02/03 11:05:41;;;;;;;0.10;0.10;;;;;;;;;;5006463;28;20037;-72
2022/02/03 11:08:18;;;;;;;0.75;0.75;;;;;;;;;;5033101;28;20025;-72
2022/02/03 11:10:50;;;;;;;0.15;0.15;;;;;;;;;;5028669;28;20116;-76
2022/02/03 11:13:16;;;;;;;0.25;0.25;;;;;;;;;;5037051;28;20021;-79
2022/02/03 11:15:43;;;;;;;0.70;0.70;;;;;;;;;;5028471;28;20038;-75
2022/02/03 11:18:11;;;;;;;0.90;0.82;;;;;;;;;;5039632;28;20438;-74
2022/02/03 11:20:44;;;;;;;0.10;0.10;;;;;;;;;;5035207;28;20463;-75
2022/02/03 11:23:32;;;;;;;0.63;0.63;;;;;;;;;;5009424;28;20133;-75
2022/02/03 11:34:33;;;;;;;0.90;0.90;;;;;;;;;;5032937;28;20182;-75
2022/02/03 11:37:24;;;;;;;1.08;0.45;;;;;;;;;;5029723;28;20033;-74
2022/02/03 11:40:36;;;;;;;0.95;0.95;;;;;;;;;;5034557;28;20057;-74
2022/02/03 11:43:25;;;;;;;;;;;;;;;;;;5034498;28;20119;-74
2022/02/03 11:52:39;;;;;;;0.52;0.52;;;;;;;;;;4999930;28;20057;-74
2022/02/03 11:59:54;;;;;;;0.03;0.03;;;;;;;;;;5028012;28;20113;-74
2022/02/03 12:02:35;;;;;;;4.53;2.03;;;;;;;;;;5029456;28;20067;-75
2022/02/03 12:13:47;;;;;;;0.10;0.10;;;;;;;;;;5029503;28;20038;-72
2022/02/03 12:21:30;;;;;;;0.30;0.30;;;;;;;;;;5024481;28;20029;-75
2022/02/03 12:26:46;;;;;;;0.20;0.20;;;;;;;;;;5026865;28;20030;-75
2022/02/03 12:29:22;;;;;;;1.45;0.52;;;;;;;;;;5028883;28;20391;-75
2022/02/03 12:37:44;;;;;;;0.40;0.22;;;;;;;;;;5027066;28;20063;-75
2022/02/03 12:40:08;;;;;;;0.63;0.57;;;;;;;;;;5023660;28;20120;-75
2022/02/03 12:42:51;;;;;;;0.05;0.05;;;;;;;;;;5027902;28;20041;-75
2022/02/03 12:45:18;;;;;;;0.63;0.63;;;;;;;;;;5027883;28;20030;-75
2022/02/03 12:47:47;;;;;;;0.20;0.20;;;;;;;;;;5026391;28;20032;-75
2022/02/03 12:50:15;;;;;;;0.10;0.10;;;;;;;;;;5020749;28;20032;-75
2022/02/03 12:52:42;;;;;;;0.08;0.08;;;;;;;;;;5020565;28;20037;-75
2022/02/03 12:55:10;;;;;;;6.93;1.92;;;;;;;;;;5023901;28;20137;-74
2022/02/03 12:57:36;;;;;;;0.20;0.20;;;;;;;;;;5025734;28;20048;-75
2022/02/03 13:00:41;;;;;;;0.20;0.20;;;;;;;;;;5024533;28;20049;-74
2022/02/03 13:03:09;;;;;;;1.20;0.70;;;;;;;;;;5016779;28;20129;-74
2022/02/03 13:05:36;;;;;;;1.08;0.57;;;;;;;;;;5024783;28;20041;-74
2022/02/03 13:08:07;;;;;;;0.35;0.30;;;;;;;;;;5028241;28;20025;-75
2022/02/03 13:10:36;;;;;;;0.52;0.10;;;;;;;;;;5017432;28;20029;-75
2022/02/03 13:13:18;;;;;;;1.27;0.77;;;;;;;;;;5025536;28;20037;-75
2022/02/03 13:15:45;;;;;;;0.15;0.15;;;;;;;;;;5027545;28;20037;-76
2022/02/03 13:18:24;;;;;;;0.22;0.22;;;;;;;;;;5025634;28;20041;-75
2022/02/03 13:21:06;;;;;;;1.02;0.55;;;;;;;;;;5026294;28;20034;-74
2022/02/03 13:23:34;;;;;;;0.20;0.20;;;;;;;;;;5029785;28;20040;-75
2022/02/03 13:26:06;;;;;;;0.10;0.10;;;;;;;;;;5025316;28;20040;-77
2022/02/03 13:31:19;;;;;;;1.27;0.65;;;;;;;;;;5026683;28;20048;-75
2022/02/03 13:33:56;;;;;;;0.85;0.77;;;;;;;;;;5032619;28;20033;-77
2022/02/03 13:36:30;;;;;;;0.30;0.22;;;;;;;;;;5032820;28;20120;-74
2022/02/03 13:39:06;;;;;;;0.00;0.00;;;;;;;;;;5031623;28;20026;-72
2022/02/03 13:41:36;;;;;;;0.20;0.10;;;;;;;;;;5032950;28;20121;-74
2022/02/03 13:44:05;;;;;;;0.15;0.15;;;;;;;;;;5036444;28;20047;-72
2022/02/03 13:46:33;;;;;;;0.10;0.10;;;;;;;;;;5030174;28;20025;-73
2022/02/03 13:48:59;;;;;;;2.20;1.17;;;;;;;;;;5024146;28;20025;-74
2022/02/03 13:51:30;;;;;;;0.10;0.10;;;;;;;;;;5033163;28;20044;-73
2022/02/03 13:54:05;;;;;;;0.13;0.13;;;;;;;;;;5027611;28;20022;-73
2022/02/03 14:21:16;;;;;;;0.00;0.00;;;;;;;;;;5023198;28;19939;-73
2022/02/03 14:29:14;;;;;;;0.43;0.40;;;;;;;;;;5029407;28;20075;-74
2022/02/03 14:31:41;;;;;;;0.40;0.40;;;;;;;;;;5018444;28;20025;-74
2022/02/03 14:34:15;;;;;;;0.10;0.10;;;;;;;;;;5031107;28;20030;-74
2022/02/03 14:36:45;;;;;;;0.65;0.65;;;;;;;;;;5026692;28;20210;-75
2022/02/03 14:39:24;;;;;;;0.20;0.20;;;;;;;;;;5021967;28;20495;-73
2022/02/03 14:41:50;;;;;;;0.70;0.30;;;;;;;;;;5019741;28;20408;-74
2022/02/03 14:44:18;;;;;;;0.10;0.10;;;;;;;;;;5017092;28;20075;-74
2022/02/03 14:46:45;;;;;;;0.10;0.10;;;;;;;;;;5024170;28;20092;-74
2022/02/03 14:49:11;;;;;;;0.90;0.90;;;;;;;;;;5026649;28;21321;-73
2022/02/03 14:51:49;;;;;;;0.20;0.20;;;;;;;;;;5028499;28;20550;-73
2022/02/03 14:59:34;;;;;;;0.40;0.40;;;;;;;;;;5033571;28;20557;-73
2022/02/03 15:02:07;;;;;;;0.77;0.60;;;;;;;;;;5024542;28;20057;-74
2022/02/03 15:04:32;;;;;;;0.20;0.20;;;;;;;;;;5026145;28;20560;-74
2022/02/03 15:07:02;;;;;;;0.10;0.10;;;;;;;;;;5030789;28;20120;-75
2022/02/03 15:12:05;;;;;;;0.15;0.15;;;;;;;;;;5018531;28;20239;-74
2022/02/03 15:14:31;;;;;;;0.22;0.22;;;;;;;;;;5025686;28;20049;-76
2022/02/03 15:16:58;;;;;;;0.68;0.68;;;;;;;;;;5021398;28;20492;-75
2022/02/03 15:19:24;;;;;;;0.10;0.10;;;;;;;;;;5026810;28;20472;-74
2022/02/03 15:21:50;;;;;;;1.30;0.43;;;;;;;;;;5032423;28;20035;-74
2022/02/03 15:24:16;;;;;;;0.20;0.20;;;;;;;;;;5031350;28;20021;-75
2022/02/03 15:26:42;;;;;;;1.08;0.60;;;;;;;;;;5025194;28;20397;-74
2022/02/03 15:29:08;;;;;;;0.50;0.50;;;;;;;;;;5036658;28;20032;-74
2022/02/03 15:31:34;;;;;;;4.70;0.57;;;;;;;;;;5030695;28;20045;-73
2022/02/03 15:34:14;;;;;;;0.25;0.25;;;;;;;;;;5032402;28;20435;-75
2022/02/03 15:36:47;;;;;;;0.47;0.47;;;;;;;;;;5021236;28;20033;-74
2022/02/03 15:39:19;;;;;;;0.65;0.65;;;;;;;;;;5029447;28;20056;-75
2022/02/03 15:41:45;;;;;;;0.30;0.30;;;;;;;;;;5027378;28;20108;-74
2022/02/03 15:44:11;;;;;;;3.92;0.95;;;;;;;;;;5028691;28;20017;-74
2022/02/03 15:46:43;;;;;;;0.00;0.00;;;;;;;;;;5026342;28;20025;-73
2022/02/03 15:49:20;;;;;;;0.60;0.45;;;;;;;;;;5030869;28;20534;-74
2022/02/03 15:57:38;;;;;;;0.57;0.57;;;;;;;;;;5027237;28;20036;-75
2022/02/03 16:00:46;;;;;;;0.47;0.47;;;;;;;;;;5023301;28;20029;-75
2022/02/03 16:03:07;;;;;;;0.20;0.20;;;;;;;;;;5023799;28;20038;-75
2022/02/03 16:14:53;;;;;;;0.60;0.60;;;;;;;;;;5026565;28;20044;-79
2022/02/03 16:17:02;;;;;;;0.40;0.40;;;;;;;;;;5030327;28;20041;-74
2022/02/03 16:19:36;;;;;;;0.10;0.10;;;;;;;;;;5028865;28;20041;-72
2022/02/03 16:22:10;;;;;;;0.22;0.22;;;;;;;;;;5027871;28;20033;-75
2022/02/03 16:42:01;;;;;;;0.15;0.15;;;;;;;;;;5029817;28;20041;-75
2022/02/03 16:50:22;;;;;;;0.20;0.20;;;;;;;;;;5028944;28;20527;-76
2022/02/03 16:54:27;;;;;;;1.88;0.88;;;;;;;;;;5025687;28;20041;-74
2022/02/03 16:56:58;;;;;;;0.73;0.40;;;;;;;;;;5029824;28;20484;-74
2022/02/03 16:59:25;;;;;;;4.07;0.75;;;;;;;;;;5027126;28;20051;-75
2022/02/03 17:01:51;;;;;;;0.20;0.20;;;;;;;;;;5029652;28;20134;-73
2022/02/03 17:04:18;;;;;;;0.20;0.20;;;;;;;;;;5033745;28;20108;-75
2022/02/03 17:06:47;;;;;;;0.15;0.15;;;;;;;;;;5034501;28;20033;-74
2022/02/03 17:09:14;;;;;;;0.20;0.20;;;;;;;;;;5033156;28;20028;-74
2022/02/03 17:11:40;;;;;;;0.30;0.30;;;;;;;;;;5037517;28;20032;-74
2022/02/03 17:14:06;;;;;;;0.17;0.17;;;;;;;;;;5030261;28;20087;-74
2022/02/03 17:16:33;;;;;;;1.88;1.10;;;;;;;;;;5029131;28;20480;-71
2022/02/03 17:18:59;;;;;;;0.20;0.20;;;;;;;;;;5033159;28;20029;-72
2022/02/03 17:21:28;;;;;;;0.40;0.40;;;;;;;;;;5031941;28;20027;-73
2022/02/03 17:23:55;;;;;;;0.60;0.60;;;;;;;;;;5026908;28;20034;-73
2022/02/03 17:26:29;;;;;;;0.10;0.10;;;;;;;;;;5031286;28;20021;-73
2022/02/03 17:29:08;;;;;;;1.92;1.73;;;;;;;;;;5031491;28;20053;-73
2022/02/03 17:52:11;;;;;;;0.40;0.40;;;;;;;;;;5032856;28;20412;-74
2022/02/03 18:09:47;;;;;;;0.10;0.10;;;;;;;;;;5029353;28;20694;-73
2022/02/03 18:36:34;;;;;;;2.17;1.40;;;;;;;;;;5021102;28;20549;-73
2022/02/03 18:50:16;;;;;;;0.90;0.90;;;;;;;;;;5018380;28;20045;-73
2022/02/03 18:55:37;;;;;;;0.25;0.22;;;;;;;;;;5005666;28;20032;-73
2022/02/03 18:58:13;;;;;;;2.00;1.52;;;;;;;;;;5011607;28;20052;-73
2022/02/03 19:03:19;;;;;;;0.20;0.20;;;;;;;;;;5010015;28;20057;-73
2022/02/03 19:14:39;;;;;;;0.50;0.50;;;;;;;;;;5010597;28;20036;-72
2022/02/03 19:27:58;;;;;;;0.35;0.35;;;;;;;;;;5008458;28;20038;-72
2022/02/03 19:59:13;;;;;;;0.52;0.47;;;;;;;;;;5025903;28;20124;-71
2022/02/03 20:01:20;;;;;;;0.38;0.38;;;;;;;;;;5026282;28;20041;-71
2022/02/03 20:04:03;;;;;;;0.35;0.35;;;;;;;;;;5025337;28;20046;-71
2022/02/03 20:07:20;;;;;;;5.82;1.35;;;;;;;;;;5028288;28;20041;-71
2022/02/03 20:09:38;;;;;;;0.73;0.73;;;;;;;;;;5018373;28;20496;-71
2022/02/03 20:12:05;;;;;;;0.22;0.15;;;;;;;;;;5023342;28;20480;-72
2022/02/03 20:14:30;;;;;;;0.32;0.32;;;;;;;;;;5028300;28;21584;-72
2022/02/03 20:16:56;;;;;;;0.60;0.60;;;;;;;;;;5023018;28;20025;-71
2022/02/03 20:19:22;;;;;;;2.10;0.77;;;;;;;;;;5030585;28;20025;-72
2022/02/03 20:21:48;;;;;;;0.57;0.57;;;;;;;;;;5026401;28;20025;-72
2022/02/03 20:24:14;;;;;;;0.60;0.60;;;;;;;;;;5030314;28;20025;-72
2022/02/03 20:26:42;;;;;;;3.72;0.85;;;;;;;;;;5029627;28;20025;-72
2022/02/03 20:29:08;;;;;;;0.22;0.22;;;;;;;;;;5035240;28;20029;-71
2022/02/03 20:31:34;;;;;;;0.20;0.20;;;;;;;;;;5031165;28;20033;-71
2022/02/03 20:34:00;;;;;;;1.00;0.50;;;;;;;;;;5022811;28;20071;-71
2022/02/03 20:36:26;;;;;;;0.88;0.88;;;;;;;;;;5026449;28;20053;-71
2022/02/03 20:38:52;;;;;;;0.80;0.80;;;;;;;;;;5024249;28;20124;-71
2022/02/03 20:41:28;;;;;;;1.30;0.47;;;;;;;;;;5032979;28;20129;-71
2022/02/03 20:43:54;;;;;;;0.73;0.52;;;;;;;;;;5032814;28;20029;-71
2022/02/03 20:46:22;;;;;;;0.60;0.60;;;;;;;;;;5028290;28;20093;-70
2022/02/03 20:48:49;;;;;;;0.73;0.73;;;;;;;;;;5031779;28;20029;-70
2022/02/03 20:51:19;;;;;;;0.38;0.22;;;;;;;;;;5025235;28;20025;-71
2022/02/03 20:53:45;;;;;;;6.07;1.67;;;;;;;;;;5034616;28;20395;-71
2022/02/03 20:56:12;;;;;;;0.28;0.28;;;;;;;;;;5029007;28;20045;-71
2022/02/03 20:58:39;;;;;;;1.05;0.95;;;;;;;;;;5033352;28;20048;-72
2022/02/03 21:01:20;;;;;;;0.50;0.50;;;;;;;;;;5033633;28;20025;-71
2022/02/03 21:03:48;;;;;;;0.05;0.05;;;;;;;;;;5012568;28;20053;-72
2022/02/03 21:06:14;;;;;;;0.43;0.30;;;;;;;;;;5033757;28;20535;-72
2022/02/03 21:08:47;;;;;;;1.17;0.82;;;;;;;;;;5044711;28;20100;-71
2022/02/03 21:11:13;;;;;;;0.70;0.70;;;;;;;;;;5025986;28;20500;-71
2022/02/03 21:13:39;;;;;;;2.78;0.82;;;;;;;;;;5024880;28;20025;-71
2022/02/03 21:16:07;;;;;;;0.35;0.35;;;;;;;;;;5028389;28;20040;-72
2022/02/03 21:18:39;;;;;;;1.17;1.00;;;;;;;;;;5027366;28;20373;-70
2022/02/03 21:21:06;;;;;;;1.08;0.73;;;;;;;;;;5028620;28;20037;-72
2022/02/03 21:23:32;;;;;;;0.25;0.25;;;;;;;;;;5030097;28;20075;-70
2022/02/03 21:26:00;;;;;;;2.92;1.75;;;;;;;;;;5029279;28;20033;-70
2022/02/03 21:28:29;;;;;;;0.93;0.90;;;;;;;;;;5036232;28;20099;-71
2022/02/03 21:30:55;;;;;;;0.38;0.38;;;;;;;;;;5030813;28;20052;-70
2022/02/03 21:33:29;;;;;;;0.28;0.28;;;;;;;;;;5027235;28;20025;-70
2022/02/03 21:35:57;;;;;;;0.30;0.30;;;;;;;;;;5026010;28;20029;-72
2022/02/03 21:38:23;;;;;;;3.25;0.65;;;;;;;;;;5029567;28;20056;-71
2022/02/03 21:40:50;;;;;;;0.55;0.30;;;;;;;;;;5033892;28;20025;-70
2022/02/03 21:43:16;;;;;;;0.10;0.10;;;;;;;;;;5033757;28;20075;-70
2022/02/03 21:45:42;;;;;;;0.00;0.00;;;;;;;;;;5038928;28;20068;-70
2022/02/03 21:48:08;;;;;;;0.35;0.35;;;;;;;;;;5032947;28;20428;-70
2022/02/03 21:50:40;;;;;;;0.20;0.20;;;;;;;;;;5033093;28;20060;-71
2022/02/03 21:53:15;;;;;;;0.73;0.73;;;;;;;;;;5036436;28;20042;-70
2022/02/03 21:55:42;;;;;;;0.38;0.38;;;;;;;;;;5031791;28;20025;-70
2022/02/03 21:58:08;;;;;;;1.23;0.95;;;;;;;;;;5038116;28;20520;-70
2022/02/03 22:00:34;;;;;;;0.10;0.10;;;;;;;;;;5041061;28;20037;-71
2022/02/03 22:03:00;;;;;;;0.52;0.52;;;;;;;;;;5034178;28;20025;-71
2022/02/03 22:05:28;;;;;;;2.03;1.15;;;;;;;;;;5047829;28;20028;-71
2022/02/03 22:07:54;;;;;;;0.25;0.25;;;;;;;;;;5035632;28;20514;-70
2022/02/03 22:10:21;;;;;;;0.15;0.15;;;;;;;;;;5032566;28;20033;-71
2022/02/03 22:12:47;;;;;;;0.43;0.43;;;;;;;;;;5030617;28;20029;-71
2022/02/03 22:15:14;;;;;;;0.50;0.50;;;;;;;;;;5033197;28;20029;-71
2022/02/03 22:17:40;;;;;;;0.52;0.52;;;;;;;;;;5031097;28;20021;-71
2022/02/03 22:20:14;;;;;;;0.10;0.10;;;;;;;;;;5031850;28;20044;-71
2022/02/03 22:23:12;;;;;;;0.70;0.55;;;;;;;;;;5032706;28;20048;-71
2022/02/03 22:38:35;;;;;;;0.10;0.10;;;;;;;;;;5026303;28;20443;-72
2022/02/03 22:40:38;;;;;;;0.68;0.68;;;;;;;;;;5033438;28;20355;-72
2022/02/03 22:42:48;;;;;;;0.38;0.32;;;;;;;;;;5035286;28;20476;-72
2022/02/03 22:45:19;;;;;;;0.30;0.30;;;;;;;;;;5036854;28;20033;-71
2022/02/03 22:50:17;;;;;;;0.13;0.13;;;;;;;;;;5032705;28;20025;-71
2022/02/03 22:52:43;;;;;;;0.30;0.30;;;;;;;;;;5042362;28;20080;-71
2022/02/03 22:55:10;;;;;;;0.63;0.63;;;;;;;;;;5031035;28;20025;-71
2022/02/03 22:57:36;;;;;;;0.40;0.40;;;;;;;;;;5026939;28;20037;-71
2022/02/03 23:00:12;;;;;;;0.52;0.52;;;;;;;;;;5031138;28;20442;-71
2022/02/03 23:02:38;;;;;;;0.20;0.20;;;;;;;;;;5037300;28;20027;-71
2022/02/03 23:05:05;;;;;;;2.63;1.08;;;;;;;;;;5045339;28;20025;-71
2022/02/03 23:07:38;;;;;;;0.20;0.20;;;;;;;;;;5031416;28;20025;-71
2022/02/03 23:10:17;;;;;;;0.65;0.65;;;;;;;;;;5016246;28;20025;-71
2022/02/03 23:20:13;;;;;;;0.88;0.65;;;;;;;;;;5033006;28;20034;-71
2022/02/03 23:22:41;;;;;;;0.43;0.43;;;;;;;;;;5032935;28;20037;-72
2022/02/03 23:25:13;;;;;;;0.65;0.40;;;;;;;;;;5028651;28;20029;-72
2022/02/03 23:30:25;;;;;;;1.08;0.98;;;;;;;;;;5032304;28;20079;-72
2022/02/03 23:32:54;;;;;;;0.10;0.10;;;;;;;;;;5037672;28;20022;-71
2022/02/03 23:35:26;;;;;;;0.55;0.55;;;;;;;;;;5034521;28;20026;-72
2022/02/03 23:38:09;;;;;;;1.35;0.70;;;;;;;;;;5028057;28;20052;-72
2022/02/03 23:49:30;;;;;;;0.28;0.28;;;;;;;;;;5030056;28;20048;-72
2022/02/03 23:51:40;;;;;;;0.20;0.20;;;;;;;;;;5022161;28;20500;-72
